Fernald, Iowa
Current Conditions -  °F | °C
As of 3:53 PM on Wednesday 22 Oct 2014 (Local Time) from KAMW Reporting Station
Broken Clouds Broken Clouds  
Wind Chill: 63°   Ceiling: 5500
Heat Index: 63°   Visibility: 10mi
Dew Point: 45°   Wind: 15mph
Humidity: 52%   Direction: 150°SSE
Pressure: 30.11"   Gusts: 24mph
Location:  42.0225°N, 93.4344°W
Report Text: KAMW 222053Z AUTO 15013G21KT 10SM BKN055 BKN070 17/07 A3011 RMK AO2 SLP196 T01720072 56021
Loading
Personal Weather Stations






























Interactive Weather Map
Tropical Storm Tracking
New forecast layout! Learn more

10-Day Weather Forecast

Advertisements
Track Severe Weather on mobile